YELW weather

Eildon Weir Airport
Victoria, Australia

Public forecast

Using degrees Celsius for public forecast. Weather courtesy of forecast.io.

Closest aviation weather report (METAR) to Eildon Weir Airport

Closest report is Wangaratta Airport, 52.8 nm (97.7 km) NNE. Retrieved 2019/10/20 22:00 UTC (29 minutes ago):

YWGT 202200Z AUTO 14002KT 9999 // ////// 12/07 Q1027

Closest aviation forecast (TAF) to Eildon Weir Airport

Closest forecast is Wangaratta Airport, 52.8 nm (97.7 km) NNE. Retrieved 2019/10/20 19:03 UTC (3 hours ago):

TAF YWGT 201725Z 2019/2108 19005KT CAVOK FM210300 26008KT CAVOK